sensor_id;sensor_type;location;lat;lon;timestamp;temperature;humidity
19437;DHT22;9854;50.968;4.168;2022-09-09T00:01:54;16.20;99.90
19437;DHT22;9854;50.968;4.168;2022-09-09T00:04:29;16.20;99.90
19437;DHT22;9854;50.968;4.168;2022-09-09T00:09:48;16.10;99.90
19437;DHT22;9854;50.968;4.168;2022-09-09T00:12:34;16.00;99.90
19437;DHT22;9854;50.968;4.168;2022-09-09T00:15:14;16.10;99.90
19437;DHT22;9854;50.968;4.168;2022-09-09T00:17:53;16.10;99.90
19437;DHT22;9854;50.968;4.168;2022-09-09T00:28:23;16.20;99.90
19437;DHT22;9854;50.968;4.168;2022-09-09T00:30:50;16.10;99.90
19437;DHT22;9854;50.968;4.168;2022-09-09T00:33:18;15.90;99.90
19437;DHT22;9854;50.968;4.168;2022-09-09T00:36:12;16.00;99.90
19437;DHT22;9854;50.968;4.168;2022-09-09T00:38:51;16.00;99.90
19437;DHT22;9854;50.968;4.168;2022-09-09T00:44:35;16.00;99.90
19437;DHT22;9854;50.968;4.168;2022-09-09T00:50:03;16.20;99.90
19437;DHT22;9854;50.968;4.168;2022-09-09T00:55:42;16.20;99.90
19437;DHT22;9854;50.968;4.168;2022-09-09T00:58:10;16.30;99.90
19437;DHT22;9854;50.968;4.168;2022-09-09T01:00:46;16.20;99.90
19437;DHT22;9854;50.968;4.168;2022-09-09T01:16:52;16.20;99.90
19437;DHT22;9854;50.968;4.168;2022-09-09T01:20:02;16.20;99.90
19437;DHT22;9854;50.968;4.168;2022-09-09T01:27:47;16.20;99.90
19437;DHT22;9854;50.968;4.168;2022-09-09T01:30:16;16.20;99.90
19437;DHT22;9854;50.968;4.168;2022-09-09T01:32:48;16.10;99.90
19437;DHT22;9854;50.968;4.168;2022-09-09T01:35:49;16.30;99.90
19437;DHT22;9854;50.968;4.168;2022-09-09T01:38:20;16.20;99.90
19437;DHT22;9854;50.968;4.168;2022-09-09T01:40:47;16.20;99.90
19437;DHT22;9854;50.968;4.168;2022-09-09T01:43:13;16.10;99.90
19437;DHT22;9854;50.968;4.168;2022-09-09T01:45:40;16.10;99.90
19437;DHT22;9854;50.968;4.168;2022-09-09T01:48:08;16.10;99.90
19437;DHT22;9854;50.968;4.168;2022-09-09T01:50:33;16.00;99.90
19437;DHT22;9854;50.968;4.168;2022-09-09T01:53:00;16.00;99.90
19437;DHT22;9854;50.968;4.168;2022-09-09T01:55:39;16.00;99.90
19437;DHT22;9854;50.968;4.168;2022-09-09T01:58:32;16.10;99.90
19437;DHT22;9854;50.968;4.168;2022-09-09T02:03:32;16.10;99.90
19437;DHT22;9854;50.968;4.168;2022-09-09T02:08:42;16.10;99.90
19437;DHT22;9854;50.968;4.168;2022-09-09T02:13:39;15.80;99.90
19437;DHT22;9854;50.968;4.168;2022-09-09T02:16:24;15.80;99.90
19437;DHT22;9854;50.968;4.168;2022-09-09T02:21:22;15.90;99.90
19437;DHT22;9854;50.968;4.168;2022-09-09T02:23:50;15.90;99.90
19437;DHT22;9854;50.968;4.168;2022-09-09T02:26:19;15.80;99.90
19437;DHT22;9854;50.968;4.168;2022-09-09T02:28:49;15.90;99.90
19437;DHT22;9854;50.968;4.168;2022-09-09T02:31:18;15.90;99.90
19437;DHT22;9854;50.968;4.168;2022-09-09T02:33:51;15.80;99.90
19437;DHT22;9854;50.968;4.168;2022-09-09T02:36:19;15.90;99.90
19437;DHT22;9854;50.968;4.168;2022-09-09T02:38:46;15.80;99.90
19437;DHT22;9854;50.968;4.168;2022-09-09T02:41:24;15.80;99.90
19437;DHT22;9854;50.968;4.168;2022-09-09T02:43:50;16.00;99.90
19437;DHT22;9854;50.968;4.168;2022-09-09T02:49:46;16.00;99.90
19437;DHT22;9854;50.968;4.168;2022-09-09T02:52:18;16.00;99.90
19437;DHT22;9854;50.968;4.168;2022-09-09T02:54:50;16.00;99.90
19437;DHT22;9854;50.968;4.168;2022-09-09T02:57:21;15.90;99.90
19437;DHT22;9854;50.968;4.168;2022-09-09T02:59:49;16.00;99.90
19437;DHT22;9854;50.968;4.168;2022-09-09T03:02:15;16.20;99.90
19437;DHT22;9854;50.968;4.168;2022-09-09T03:04:41;16.10;99.90
19437;DHT22;9854;50.968;4.168;2022-09-09T03:07:10;16.00;99.90
19437;DHT22;9854;50.968;4.168;2022-09-09T03:09:35;16.00;99.90
19437;DHT22;9854;50.968;4.168;2022-09-09T03:12:02;15.90;99.90
19437;DHT22;9854;50.968;4.168;2022-09-09T03:14:29;16.00;99.90
19437;DHT22;9854;50.968;4.168;2022-09-09T03:16:56;15.90;99.90
19437;DHT22;9854;50.968;4.168;2022-09-09T03:19:23;16.00;99.90
19437;DHT22;9854;50.968;4.168;2022-09-09T03:21:48;15.90;99.90
19437;DHT22;9854;50.968;4.168;2022-09-09T03:24:15;15.90;99.90
19437;DHT22;9854;50.968;4.168;2022-09-09T03:26:41;15.90;99.90
19437;DHT22;9854;50.968;4.168;2022-09-09T03:29:10;16.00;99.90
19437;DHT22;9854;50.968;4.168;2022-09-09T03:31:37;16.00;99.90
19437;DHT22;9854;50.968;4.168;2022-09-09T03:34:03;15.90;99.90
19437;DHT22;9854;50.968;4.168;2022-09-09T03:36:29;15.80;99.90
19437;DHT22;9854;50.968;4.168;2022-09-09T03:38:55;15.90;99.90
19437;DHT22;9854;50.968;4.168;2022-09-09T03:41:22;16.00;99.90
19437;DHT22;9854;50.968;4.168;2022-09-09T03:43:50;16.00;99.90
19437;DHT22;9854;50.968;4.168;2022-09-09T03:46:16;16.10;99.90
19437;DHT22;9854;50.968;4.168;2022-09-09T03:48:42;15.90;99.90
19437;DHT22;9854;50.968;4.168;2022-09-09T03:51:07;15.90;99.90
19437;DHT22;9854;50.968;4.168;2022-09-09T03:53:33;15.90;99.90
19437;DHT22;9854;50.968;4.168;2022-09-09T03:55:59;16.10;99.90
19437;DHT22;9854;50.968;4.168;2022-09-09T03:58:27;16.00;99.90
19437;DHT22;9854;50.968;4.168;2022-09-09T04:03:29;16.20;99.90
19437;DHT22;9854;50.968;4.168;2022-09-09T04:05:57;16.30;99.90
19437;DHT22;9854;50.968;4.168;2022-09-09T04:08:23;16.30;99.90
19437;DHT22;9854;50.968;4.168;2022-09-09T04:10:53;16.10;99.90
19437;DHT22;9854;50.968;4.168;2022-09-09T04:13:19;16.00;99.90
19437;DHT22;9854;50.968;4.168;2022-09-09T04:15:51;16.10;99.90
19437;DHT22;9854;50.968;4.168;2022-09-09T04:18:16;16.10;99.90
19437;DHT22;9854;50.968;4.168;2022-09-09T04:20:42;15.90;99.90
19437;DHT22;9854;50.968;4.168;2022-09-09T04:23:09;15.90;99.90
19437;DHT22;9854;50.968;4.168;2022-09-09T04:25:34;16.00;99.90
19437;DHT22;9854;50.968;4.168;2022-09-09T04:28:00;16.00;99.90
19437;DHT22;9854;50.968;4.168;2022-09-09T04:30:26;16.10;99.90
19437;DHT22;9854;50.968;4.168;2022-09-09T04:32:53;16.20;99.90
19437;DHT22;9854;50.968;4.168;2022-09-09T04:35:19;16.20;99.90
19437;DHT22;9854;50.968;4.168;2022-09-09T04:37:45;16.20;99.90
19437;DHT22;9854;50.968;4.168;2022-09-09T04:40:11;16.20;99.90
19437;DHT22;9854;50.968;4.168;2022-09-09T04:42:37;16.20;99.90
19437;DHT22;9854;50.968;4.168;2022-09-09T04:45:04;16.20;99.90
19437;DHT22;9854;50.968;4.168;2022-09-09T04:47:30;16.30;99.90
19437;DHT22;9854;50.968;4.168;2022-09-09T04:49:56;16.10;99.90
19437;DHT22;9854;50.968;4.168;2022-09-09T04:52:22;16.10;99.90
19437;DHT22;9854;50.968;4.168;2022-09-09T04:54:47;16.10;99.90
19437;DHT22;9854;50.968;4.168;2022-09-09T04:57:13;16.10;99.90
19437;DHT22;9854;50.968;4.168;2022-09-09T04:59:39;16.00;99.90
19437;DHT22;9854;50.968;4.168;2022-09-09T05:02:05;15.90;99.90
19437;DHT22;9854;50.968;4.168;2022-09-09T05:04:31;16.00;99.90
19437;DHT22;9854;50.968;4.168;2022-09-09T05:06:57;16.00;99.90
19437;DHT22;9854;50.968;4.168;2022-09-09T05:09:22;16.10;99.90
19437;DHT22;9854;50.968;4.168;2022-09-09T05:11:48;16.10;99.90
19437;DHT22;9854;50.968;4.168;2022-09-09T05:14:14;16.00;99.90
19437;DHT22;9854;50.968;4.168;2022-09-09T05:16:40;16.10;99.90
19437;DHT22;9854;50.968;4.168;2022-09-09T05:19:06;16.10;99.90
19437;DHT22;9854;50.968;4.168;2022-09-09T05:21:33;16.10;99.90
19437;DHT22;9854;50.968;4.168;2022-09-09T05:23:59;16.30;99.90
19437;DHT22;9854;50.968;4.168;2022-09-09T05:26:26;16.20;99.90
19437;DHT22;9854;50.968;4.168;2022-09-09T05:28:52;16.20;99.90
19437;DHT22;9854;50.968;4.168;2022-09-09T05:31:18;16.30;99.90
19437;DHT22;9854;50.968;4.168;2022-09-09T05:33:45;16.30;99.90
19437;DHT22;9854;50.968;4.168;2022-09-09T05:36:14;16.40;99.90
19437;DHT22;9854;50.968;4.168;2022-09-09T05:38:40;16.40;99.90
19437;DHT22;9854;50.968;4.168;2022-09-09T05:41:07;16.40;99.90
19437;DHT22;9854;50.968;4.168;2022-09-09T05:43:33;16.30;99.90
19437;DHT22;9854;50.968;4.168;2022-09-09T05:46:09;16.20;99.90
19437;DHT22;9854;50.968;4.168;2022-09-09T05:48:39;16.20;99.90
19437;DHT22;9854;50.968;4.168;2022-09-09T05:51:08;16.20;99.90
19437;DHT22;9854;50.968;4.168;2022-09-09T05:53:35;16.20;99.90
19437;DHT22;9854;50.968;4.168;2022-09-09T05:56:06;16.20;99.90
19437;DHT22;9854;50.968;4.168;2022-09-09T05:58:32;16.30;99.90
19437;DHT22;9854;50.968;4.168;2022-09-09T06:01:06;16.40;99.90
19437;DHT22;9854;50.968;4.168;2022-09-09T06:03:34;16.50;99.90
19437;DHT22;9854;50.968;4.168;2022-09-09T06:06:02;16.70;99.90
19437;DHT22;9854;50.968;4.168;2022-09-09T06:08:30;16.50;99.90
19437;DHT22;9854;50.968;4.168;2022-09-09T06:11:05;16.50;99.90
19437;DHT22;9854;50.968;4.168;2022-09-09T06:13:31;16.50;99.90
19437;DHT22;9854;50.968;4.168;2022-09-09T06:15:57;16.50;99.90
19437;DHT22;9854;50.968;4.168;2022-09-09T06:18:24;16.50;99.90
19437;DHT22;9854;50.968;4.168;2022-09-09T06:20:57;16.50;99.90
19437;DHT22;9854;50.968;4.168;2022-09-09T06:23:23;16.60;99.90
19437;DHT22;9854;50.968;4.168;2022-09-09T06:25:50;16.50;99.90
19437;DHT22;9854;50.968;4.168;2022-09-09T06:28:16;16.50;99.90
19437;DHT22;9854;50.968;4.168;2022-09-09T06:30:42;16.50;99.90
19437;DHT22;9854;50.968;4.168;2022-09-09T06:33:08;16.40;99.90
19437;DHT22;9854;50.968;4.168;2022-09-09T06:35:34;16.50;99.90
19437;DHT22;9854;50.968;4.168;2022-09-09T06:38:00;16.60;99.90
19437;DHT22;9854;50.968;4.168;2022-09-09T06:40:26;16.60;99.90
19437;DHT22;9854;50.968;4.168;2022-09-09T06:42:51;16.80;99.90
19437;DHT22;9854;50.968;4.168;2022-09-09T06:45:17;16.90;99.90
19437;DHT22;9854;50.968;4.168;2022-09-09T06:47:43;16.90;99.90
19437;DHT22;9854;50.968;4.168;2022-09-09T06:50:09;17.00;99.90
19437;DHT22;9854;50.968;4.168;2022-09-09T06:52:36;17.10;99.90
19437;DHT22;9854;50.968;4.168;2022-09-09T06:55:03;17.00;99.90
19437;DHT22;9854;50.968;4.168;2022-09-09T06:57:29;17.00;99.90
19437;DHT22;9854;50.968;4.168;2022-09-09T06:59:54;16.90;99.90
19437;DHT22;9854;50.968;4.168;2022-09-09T07:02:20;17.00;99.90
19437;DHT22;9854;50.968;4.168;2022-09-09T07:04:46;17.00;99.90
19437;DHT22;9854;50.968;4.168;2022-09-09T07:07:12;16.90;99.90
19437;DHT22;9854;50.968;4.168;2022-09-09T07:09:40;16.90;99.90
19437;DHT22;9854;50.968;4.168;2022-09-09T07:12:06;16.90;99.90
19437;DHT22;9854;50.968;4.168;2022-09-09T07:14:32;17.10;99.90
19437;DHT22;9854;50.968;4.168;2022-09-09T07:16:59;17.20;99.90
19437;DHT22;9854;50.968;4.168;2022-09-09T07:19:25;17.10;99.90
19437;DHT22;9854;50.968;4.168;2022-09-09T07:21:51;17.10;99.90
19437;DHT22;9854;50.968;4.168;2022-09-09T07:24:17;17.30;99.90
19437;DHT22;9854;50.968;4.168;2022-09-09T07:26:42;17.40;99.90
19437;DHT22;9854;50.968;4.168;2022-09-09T07:29:09;17.40;99.90
19437;DHT22;9854;50.968;4.168;2022-09-09T07:31:38;17.20;99.90
19437;DHT22;9854;50.968;4.168;2022-09-09T07:34:05;17.10;99.90
19437;DHT22;9854;50.968;4.168;2022-09-09T07:36:33;17.20;99.90
19437;DHT22;9854;50.968;4.168;2022-09-09T07:39:05;17.20;99.90
19437;DHT22;9854;50.968;4.168;2022-09-09T07:41:41;17.20;99.90
19437;DHT22;9854;50.968;4.168;2022-09-09T07:44:09;17.10;99.90
19437;DHT22;9854;50.968;4.168;2022-09-09T07:46:37;17.20;99.90
19437;DHT22;9854;50.968;4.168;2022-09-09T07:49:05;17.10;99.90
19437;DHT22;9854;50.968;4.168;2022-09-09T07:51:35;17.10;99.90
19437;DHT22;9854;50.968;4.168;2022-09-09T07:54:04;17.10;99.90
19437;DHT22;9854;50.968;4.168;2022-09-09T07:56:31;17.10;99.90
19437;DHT22;9854;50.968;4.168;2022-09-09T07:58:58;17.10;99.90
19437;DHT22;9854;50.968;4.168;2022-09-09T08:01:29;17.20;99.90
19437;DHT22;9854;50.968;4.168;2022-09-09T08:03:58;17.50;99.90
19437;DHT22;9854;50.968;4.168;2022-09-09T08:06:25;17.40;99.90
19437;DHT22;9854;50.968;4.168;2022-09-09T08:08:52;17.30;99.90
19437;DHT22;9854;50.968;4.168;2022-09-09T08:11:18;17.40;99.90
19437;DHT22;9854;50.968;4.168;2022-09-09T08:13:44;17.60;99.90
19437;DHT22;9854;50.968;4.168;2022-09-09T08:16:13;17.60;99.90
19437;DHT22;9854;50.968;4.168;2022-09-09T08:18:39;17.70;99.90
19437;DHT22;9854;50.968;4.168;2022-09-09T08:21:13;17.90;99.90
19437;DHT22;9854;50.968;4.168;2022-09-09T08:23:40;17.80;99.90
19437;DHT22;9854;50.968;4.168;2022-09-09T08:26:15;17.90;99.90
19437;DHT22;9854;50.968;4.168;2022-09-09T08:28:43;18.10;99.90
19437;DHT22;9854;50.968;4.168;2022-09-09T08:31:20;17.90;99.90
19437;DHT22;9854;50.968;4.168;2022-09-09T08:33:46;17.90;99.90
19437;DHT22;9854;50.968;4.168;2022-09-09T08:36:17;17.60;99.90
19437;DHT22;9854;50.968;4.168;2022-09-09T08:38:43;17.60;99.90
19437;DHT22;9854;50.968;4.168;2022-09-09T08:43:58;17.30;99.90
19437;DHT22;9854;50.968;4.168;2022-09-09T08:46:42;17.40;99.90
19437;DHT22;9854;50.968;4.168;2022-09-09T08:52:14;17.30;99.90
19437;DHT22;9854;50.968;4.168;2022-09-09T08:54:42;17.30;99.90
19437;DHT22;9854;50.968;4.168;2022-09-09T08:57:14;17.50;99.90
19437;DHT22;9854;50.968;4.168;2022-09-09T08:59:43;17.50;99.90
19437;DHT22;9854;50.968;4.168;2022-09-09T09:07:53;17.40;99.90
19437;DHT22;9854;50.968;4.168;2022-09-09T09:10:43;17.40;99.90
19437;DHT22;9854;50.968;4.168;2022-09-09T09:13:20;17.30;99.90
19437;DHT22;9854;50.968;4.168;2022-09-09T09:16:00;17.20;99.90
19437;DHT22;9854;50.968;4.168;2022-09-09T09:18:27;17.30;99.90
19437;DHT22;9854;50.968;4.168;2022-09-09T09:21:04;17.40;99.90
19437;DHT22;9854;50.968;4.168;2022-09-09T09:23:41;17.50;99.90
19437;DHT22;9854;50.968;4.168;2022-09-09T09:26:09;17.50;99.90
19437;DHT22;9854;50.968;4.168;2022-09-09T09:28:36;17.50;99.90
19437;DHT22;9854;50.968;4.168;2022-09-09T09:31:06;17.60;99.90
19437;DHT22;9854;50.968;4.168;2022-09-09T09:36:12;17.60;99.90
19437;DHT22;9854;50.968;4.168;2022-09-09T09:38:52;17.70;99.90
19437;DHT22;9854;50.968;4.168;2022-09-09T09:41:30;17.80;99.90
19437;DHT22;9854;50.968;4.168;2022-09-09T09:43:56;17.60;99.90
19437;DHT22;9854;50.968;4.168;2022-09-09T09:46:24;17.70;99.90
19437;DHT22;9854;50.968;4.168;2022-09-09T09:49:17;17.60;99.90
19437;DHT22;9854;50.968;4.168;2022-09-09T09:51:43;17.60;99.90
19437;DHT22;9854;50.968;4.168;2022-09-09T09:56:38;17.70;99.90
19437;DHT22;9854;50.968;4.168;2022-09-09T09:59:18;17.80;99.90
19437;DHT22;9854;50.968;4.168;2022-09-09T10:01:44;17.80;99.90
19437;DHT22;9854;50.968;4.168;2022-09-09T10:04:20;17.80;99.90
19437;DHT22;9854;50.968;4.168;2022-09-09T10:06:47;17.90;99.90
19437;DHT22;9854;50.968;4.168;2022-09-09T10:09:27;18.00;99.90
19437;DHT22;9854;50.968;4.168;2022-09-09T10:14:55;18.30;99.90
19437;DHT22;9854;50.968;4.168;2022-09-09T10:17:51;18.30;99.90
19437;DHT22;9854;50.968;4.168;2022-09-09T10:23:19;18.50;99.90
19437;DHT22;9854;50.968;4.168;2022-09-09T10:31:17;18.20;99.90
19437;DHT22;9854;50.968;4.168;2022-09-09T10:36:55;18.30;99.90
19437;DHT22;9854;50.968;4.168;2022-09-09T10:42:05;18.20;99.90
19437;DHT22;9854;50.968;4.168;2022-09-09T10:48:28;18.00;99.90
19437;DHT22;9854;50.968;4.168;2022-09-09T10:53:21;18.20;99.90
19437;DHT22;9854;50.968;4.168;2022-09-09T10:55:53;18.40;99.90
19437;DHT22;9854;50.968;4.168;2022-09-09T10:58:27;18.60;99.90
19437;DHT22;9854;50.968;4.168;2022-09-09T11:00:59;18.80;99.90
19437;DHT22;9854;50.968;4.168;2022-09-09T11:03:28;18.70;99.90
19437;DHT22;9854;50.968;4.168;2022-09-09T11:06:16;18.70;99.90
19437;DHT22;9854;50.968;4.168;2022-09-09T11:08:43;18.90;99.90
19437;DHT22;9854;50.968;4.168;2022-09-09T11:11:29;18.80;99.90
19437;DHT22;9854;50.968;4.168;2022-09-09T11:14:12;18.90;99.90
19437;DHT22;9854;50.968;4.168;2022-09-09T11:17:03;18.80;99.90
19437;DHT22;9854;50.968;4.168;2022-09-09T11:19:35;18.80;99.90
19437;DHT22;9854;50.968;4.168;2022-09-09T11:23:10;18.90;99.90
19437;DHT22;9854;50.968;4.168;2022-09-09T11:25:20;19.00;99.90
19437;DHT22;9854;50.968;4.168;2022-09-09T11:30:48;19.40;99.90
19437;DHT22;9854;50.968;4.168;2022-09-09T11:36:30;19.30;99.90
19437;DHT22;9854;50.968;4.168;2022-09-09T11:39:37;19.10;99.90
19437;DHT22;9854;50.968;4.168;2022-09-09T11:44:41;19.10;99.90
19437;DHT22;9854;50.968;4.168;2022-09-09T11:47:23;19.10;99.90
19437;DHT22;9854;50.968;4.168;2022-09-09T11:49:51;19.20;99.90
19437;DHT22;9854;50.968;4.168;2022-09-09T11:52:36;19.10;99.90
19437;DHT22;9854;50.968;4.168;2022-09-09T11:55:28;19.10;99.90
19437;DHT22;9854;50.968;4.168;2022-09-09T12:00:40;18.90;99.90
19437;DHT22;9854;50.968;4.168;2022-09-09T12:03:34;18.90;99.90
19437;DHT22;9854;50.968;4.168;2022-09-09T12:08:51;19.50;99.90
19437;DHT22;9854;50.968;4.168;2022-09-09T12:11:26;19.60;99.90
19437;DHT22;9854;50.968;4.168;2022-09-09T12:13:54;19.70;99.90
19437;DHT22;9854;50.968;4.168;2022-09-09T12:16:36;19.70;99.90
19437;DHT22;9854;50.968;4.168;2022-09-09T12:19:13;19.80;99.90
19437;DHT22;9854;50.968;4.168;2022-09-09T12:21:59;19.90;99.90
19437;DHT22;9854;50.968;4.168;2022-09-09T12:24:40;20.00;99.90
19437;DHT22;9854;50.968;4.168;2022-09-09T12:27:31;20.10;99.90
19437;DHT22;9854;50.968;4.168;2022-09-09T12:30:07;20.30;99.90
19437;DHT22;9854;50.968;4.168;2022-09-09T12:32:35;20.00;99.90
19437;DHT22;9854;50.968;4.168;2022-09-09T12:37:36;19.80;99.90
19437;DHT22;9854;50.968;4.168;2022-09-09T12:40:19;19.80;99.90
19437;DHT22;9854;50.968;4.168;2022-09-09T12:42:45;20.10;99.90
19437;DHT22;9854;50.968;4.168;2022-09-09T12:45:20;20.00;99.90
19437;DHT22;9854;50.968;4.168;2022-09-09T12:50:22;19.90;99.90
19437;DHT22;9854;50.968;4.168;2022-09-09T12:52:52;19.80;99.90
19437;DHT22;9854;50.968;4.168;2022-09-09T12:55:23;20.20;99.90
19437;DHT22;9854;50.968;4.168;2022-09-09T12:57:50;20.40;99.90
19437;DHT22;9854;50.968;4.168;2022-09-09T13:00:20;20.30;99.90
19437;DHT22;9854;50.968;4.168;2022-09-09T13:02:54;20.30;99.90
19437;DHT22;9854;50.968;4.168;2022-09-09T13:05:26;20.30;99.90
19437;DHT22;9854;50.968;4.168;2022-09-09T13:08:03;20.30;99.90
19437;DHT22;9854;50.968;4.168;2022-09-09T13:10:35;20.30;99.90
19437;DHT22;9854;50.968;4.168;2022-09-09T13:13:04;20.30;99.90
19437;DHT22;9854;50.968;4.168;2022-09-09T13:15:30;20.30;99.90
19437;DHT22;9854;50.968;4.168;2022-09-09T13:17:57;20.50;99.90
19437;DHT22;9854;50.968;4.168;2022-09-09T13:20:27;20.30;99.90
19437;DHT22;9854;50.968;4.168;2022-09-09T13:22:54;20.20;99.90
19437;DHT22;9854;50.968;4.168;2022-09-09T13:25:26;20.20;99.90
19437;DHT22;9854;50.968;4.168;2022-09-09T13:35:54;20.70;99.90
19437;DHT22;9854;50.968;4.168;2022-09-09T13:38:20;20.90;99.90
19437;DHT22;9854;50.968;4.168;2022-09-09T13:41:03;21.00;99.90
19437;DHT22;9854;50.968;4.168;2022-09-09T13:43:34;21.00;99.90
19437;DHT22;9854;50.968;4.168;2022-09-09T13:46:22;20.90;99.90
19437;DHT22;9854;50.968;4.168;2022-09-09T13:49:18;20.80;99.90
19437;DHT22;9854;50.968;4.168;2022-09-09T13:51:47;20.60;99.90
19437;DHT22;9854;50.968;4.168;2022-09-09T13:54:15;20.40;99.90
19437;DHT22;9854;50.968;4.168;2022-09-09T13:56:42;20.30;99.90
19437;DHT22;9854;50.968;4.168;2022-09-09T13:59:17;20.20;99.90
19437;DHT22;9854;50.968;4.168;2022-09-09T14:01:44;20.30;99.90
19437;DHT22;9854;50.968;4.168;2022-09-09T14:04:09;20.40;99.90
19437;DHT22;9854;50.968;4.168;2022-09-09T14:06:36;20.50;99.90
19437;DHT22;9854;50.968;4.168;2022-09-09T14:09:15;20.60;99.90
19437;DHT22;9854;50.968;4.168;2022-09-09T14:11:41;20.70;99.90
19437;DHT22;9854;50.968;4.168;2022-09-09T14:14:08;20.80;99.90
19437;DHT22;9854;50.968;4.168;2022-09-09T14:16:34;21.00;99.90
19437;DHT22;9854;50.968;4.168;2022-09-09T14:19:00;21.00;99.90
19437;DHT22;9854;50.968;4.168;2022-09-09T14:21:27;21.00;99.90
19437;DHT22;9854;50.968;4.168;2022-09-09T14:23:52;21.00;99.90
19437;DHT22;9854;50.968;4.168;2022-09-09T14:26:19;21.20;99.90
19437;DHT22;9854;50.968;4.168;2022-09-09T14:28:47;21.40;99.90
19437;DHT22;9854;50.968;4.168;2022-09-09T14:31:13;21.50;99.90
19437;DHT22;9854;50.968;4.168;2022-09-09T14:33:40;21.40;99.90
19437;DHT22;9854;50.968;4.168;2022-09-09T14:36:06;21.40;99.90
19437;DHT22;9854;50.968;4.168;2022-09-09T14:38:37;21.30;99.90
19437;DHT22;9854;50.968;4.168;2022-09-09T14:41:11;21.20;99.90
19437;DHT22;9854;50.968;4.168;2022-09-09T14:43:40;21.40;99.90
19437;DHT22;9854;50.968;4.168;2022-09-09T14:46:10;21.60;99.90
19437;DHT22;9854;50.968;4.168;2022-09-09T14:48:36;21.80;99.90
19437;DHT22;9854;50.968;4.168;2022-09-09T14:51:10;21.80;99.90
19437;DHT22;9854;50.968;4.168;2022-09-09T14:53:38;21.70;99.90
19437;DHT22;9854;50.968;4.168;2022-09-09T14:56:18;21.70;99.90
19437;DHT22;9854;50.968;4.168;2022-09-09T14:58:45;21.40;99.90
19437;DHT22;9854;50.968;4.168;2022-09-09T15:01:13;21.20;99.90
19437;DHT22;9854;50.968;4.168;2022-09-09T15:03:41;21.10;99.90
19437;DHT22;9854;50.968;4.168;2022-09-09T15:06:08;21.00;99.90
19437;DHT22;9854;50.968;4.168;2022-09-09T15:08:39;20.70;99.90
19437;DHT22;9854;50.968;4.168;2022-09-09T15:11:06;20.60;99.90
19437;DHT22;9854;50.968;4.168;2022-09-09T15:13:36;20.60;99.90
19437;DHT22;9854;50.968;4.168;2022-09-09T15:18:31;19.40;99.90
19437;DHT22;9854;50.968;4.168;2022-09-09T15:20:58;18.70;99.90
19437;DHT22;9854;50.968;4.168;2022-09-09T15:23:25;18.40;99.90
19437;DHT22;9854;50.968;4.168;2022-09-09T15:25:54;18.20;99.90
19437;DHT22;9854;50.968;4.168;2022-09-09T15:28:21;18.00;99.90
19437;DHT22;9854;50.968;4.168;2022-09-09T15:30:48;18.00;99.90
19437;DHT22;9854;50.968;4.168;2022-09-09T15:33:14;18.10;99.90
19437;DHT22;9854;50.968;4.168;2022-09-09T15:35:40;18.10;99.90
19437;DHT22;9854;50.968;4.168;2022-09-09T15:38:06;18.00;99.90
19437;DHT22;9854;50.968;4.168;2022-09-09T15:40:31;18.10;99.90
19437;DHT22;9854;50.968;4.168;2022-09-09T15:43:00;18.10;99.90
19437;DHT22;9854;50.968;4.168;2022-09-09T15:45:27;18.20;99.90
19437;DHT22;9854;50.968;4.168;2022-09-09T15:47:53;18.10;99.90
19437;DHT22;9854;50.968;4.168;2022-09-09T15:50:18;17.80;99.90
19437;DHT22;9854;50.968;4.168;2022-09-09T15:52:44;17.60;99.90
19437;DHT22;9854;50.968;4.168;2022-09-09T15:55:10;17.50;99.90
19437;DHT22;9854;50.968;4.168;2022-09-09T15:57:35;17.60;99.90
19437;DHT22;9854;50.968;4.168;2022-09-09T16:00:03;17.60;99.90
19437;DHT22;9854;50.968;4.168;2022-09-09T16:02:29;17.70;99.90
19437;DHT22;9854;50.968;4.168;2022-09-09T16:04:56;17.90;99.90
19437;DHT22;9854;50.968;4.168;2022-09-09T16:07:22;18.00;99.90
19437;DHT22;9854;50.968;4.168;2022-09-09T16:09:48;18.00;99.90
19437;DHT22;9854;50.968;4.168;2022-09-09T16:12:16;18.10;99.90
19437;DHT22;9854;50.968;4.168;2022-09-09T16:14:41;18.00;99.90
19437;DHT22;9854;50.968;4.168;2022-09-09T16:17:07;18.00;99.90
19437;DHT22;9854;50.968;4.168;2022-09-09T16:19:33;18.00;99.90
19437;DHT22;9854;50.968;4.168;2022-09-09T16:22:00;18.00;99.90
19437;DHT22;9854;50.968;4.168;2022-09-09T16:24:26;18.10;99.90
19437;DHT22;9854;50.968;4.168;2022-09-09T16:26:53;18.00;99.90
19437;DHT22;9854;50.968;4.168;2022-09-09T16:29:20;18.20;99.90
19437;DHT22;9854;50.968;4.168;2022-09-09T16:31:48;18.20;99.90
19437;DHT22;9854;50.968;4.168;2022-09-09T16:34:15;18.10;99.90
19437;DHT22;9854;50.968;4.168;2022-09-09T16:36:43;17.80;99.90
19437;DHT22;9854;50.968;4.168;2022-09-09T16:39:17;17.70;99.90
19437;DHT22;9854;50.968;4.168;2022-09-09T16:41:44;17.70;99.90
19437;DHT22;9854;50.968;4.168;2022-09-09T16:44:12;18.20;99.90
19437;DHT22;9854;50.968;4.168;2022-09-09T16:46:39;18.70;99.90
19437;DHT22;9854;50.968;4.168;2022-09-09T16:49:10;19.10;99.90
19437;DHT22;9854;50.968;4.168;2022-09-09T16:51:48;19.20;99.90
19437;DHT22;9854;50.968;4.168;2022-09-09T16:54:15;19.50;99.90
19437;DHT22;9854;50.968;4.168;2022-09-09T16:56:43;19.50;99.90
19437;DHT22;9854;50.968;4.168;2022-09-09T16:59:12;19.70;99.90
19437;DHT22;9854;50.968;4.168;2022-09-09T17:01:40;19.50;99.90
19437;DHT22;9854;50.968;4.168;2022-09-09T17:04:09;19.40;99.90
19437;DHT22;9854;50.968;4.168;2022-09-09T17:06:36;19.20;99.90
19437;DHT22;9854;50.968;4.168;2022-09-09T17:09:06;19.30;99.90
19437;DHT22;9854;50.968;4.168;2022-09-09T17:11:33;19.30;99.90
19437;DHT22;9854;50.968;4.168;2022-09-09T17:13:59;19.20;99.90
19437;DHT22;9854;50.968;4.168;2022-09-09T17:16:27;18.90;99.90
19437;DHT22;9854;50.968;4.168;2022-09-09T17:18:54;18.80;99.90
19437;DHT22;9854;50.968;4.168;2022-09-09T17:21:22;18.70;99.90
19437;DHT22;9854;50.968;4.168;2022-09-09T17:23:49;18.70;99.90
19437;DHT22;9854;50.968;4.168;2022-09-09T17:26:18;18.80;99.90
19437;DHT22;9854;50.968;4.168;2022-09-09T17:28:44;18.70;99.90
19437;DHT22;9854;50.968;4.168;2022-09-09T17:31:12;18.80;99.90
19437;DHT22;9854;50.968;4.168;2022-09-09T17:33:40;19.00;99.90
19437;DHT22;9854;50.968;4.168;2022-09-09T17:36:28;19.00;99.90
19437;DHT22;9854;50.968;4.168;2022-09-09T17:38:54;18.90;99.90
19437;DHT22;9854;50.968;4.168;2022-09-09T17:41:39;18.90;99.90
19437;DHT22;9854;50.968;4.168;2022-09-09T17:44:06;18.90;99.90
19437;DHT22;9854;50.968;4.168;2022-09-09T17:46:34;18.90;99.90
19437;DHT22;9854;50.968;4.168;2022-09-09T17:49:06;18.90;99.90
19437;DHT22;9854;50.968;4.168;2022-09-09T17:51:33;18.80;99.90
19437;DHT22;9854;50.968;4.168;2022-09-09T17:54:08;18.70;99.90
19437;DHT22;9854;50.968;4.168;2022-09-09T17:56:35;18.80;99.90
19437;DHT22;9854;50.968;4.168;2022-09-09T17:59:03;18.60;99.90
19437;DHT22;9854;50.968;4.168;2022-09-09T18:01:34;18.40;99.90
19437;DHT22;9854;50.968;4.168;2022-09-09T18:04:03;18.40;99.90
19437;DHT22;9854;50.968;4.168;2022-09-09T18:06:33;18.40;99.90
19437;DHT22;9854;50.968;4.168;2022-09-09T18:09:01;18.30;99.90